createdAt,value
2023-04-25T00:01:54.510Z,101360.84
2023-04-25T00:03:58.953Z,101359.97
2023-04-25T00:06:04.863Z,101369.53
2023-04-25T00:08:09.573Z,101370.22
2023-04-25T00:10:14.049Z,101374.59
2023-04-25T00:12:18.689Z,101374.53
2023-04-25T00:14:27.200Z,101378.78
2023-04-25T00:16:35.072Z,101377.88
2023-04-25T00:18:40.985Z,101374.34
2023-04-25T00:20:47.844Z,101368.19
2023-04-25T00:22:54.038Z,101368.13
2023-04-25T00:24:58.710Z,101365.44
2023-04-25T00:27:03.849Z,101361.06
2023-04-25T00:29:08.043Z,101367.16
2023-04-25T00:31:12.800Z,101368.00
2023-04-25T00:33:17.396Z,101367.16
2023-04-25T00:35:23.320Z,101368.13
2023-04-25T00:37:28.038Z,101370.75
2023-04-25T00:39:32.521Z,101368.19
2023-04-25T00:41:37.393Z,101363.00
2023-04-25T00:43:42.769Z,101359.47
2023-04-25T00:45:51.896Z,101366.53
2023-04-25T00:47:57.071Z,101363.09
2023-04-25T00:50:01.566Z,101368.41
2023-04-25T00:52:08.120Z,101364.13
2023-04-25T00:54:12.746Z,101368.56
2023-04-25T00:56:17.566Z,101366.00
2023-04-25T00:58:23.117Z,101374.78
2023-04-25T01:00:27.439Z,101368.75
2023-04-25T01:02:33.167Z,101365.34
2023-04-25T01:04:37.458Z,101368.03
2023-04-25T01:06:42.649Z,101369.84
2023-04-25T01:08:48.875Z,101362.97
2023-04-25T01:10:52.978Z,101369.19
2023-04-25T01:12:57.843Z,101378.97
2023-04-25T01:15:02.052Z,101375.53
2023-04-25T01:17:09.052Z,101373.84
2023-04-25T01:19:18.834Z,101375.69
2023-04-25T01:21:28.561Z,101371.34
2023-04-25T01:23:34.596Z,101373.22
2023-04-25T01:25:39.603Z,101374.19
2023-04-25T01:27:43.686Z,101371.63
2023-04-25T01:29:48.673Z,101369.94
2023-04-25T01:31:54.092Z,101362.97
2023-04-25T01:33:59.163Z,101358.66
2023-04-25T01:36:03.581Z,101356.03
2023-04-25T01:38:09.772Z,101351.75
2023-04-25T01:40:14.970Z,101356.22
2023-04-25T01:42:19.252Z,101361.59
2023-04-25T01:44:23.534Z,101353.81
2023-04-25T01:46:29.613Z,101356.50
2023-04-25T01:48:34.046Z,101353.88
2023-04-25T01:50:38.887Z,101355.63
2023-04-25T01:52:43.329Z,101353.00
2023-04-25T01:54:51.311Z,101353.09
2023-04-25T01:56:59.635Z,101348.75
2023-04-25T01:59:04.361Z,101348.84
2023-04-25T02:01:24.111Z,101348.91
2023-04-25T02:03:48.586Z,101364.72
2023-04-25T02:06:02.968Z,101372.56
2023-04-25T02:08:11.957Z,101357.75
2023-04-25T02:10:18.104Z,101357.81
2023-04-25T02:12:38.961Z,101357.97
2023-04-25T02:14:56.416Z,101360.66
2023-04-25T02:17:23.003Z,101363.38
2023-04-25T02:19:29.264Z,101368.75
2023-04-25T02:21:33.538Z,101368.75
2023-04-25T02:23:38.307Z,101366.22
2023-04-25T02:25:45.004Z,101367.13
2023-04-25T02:27:49.751Z,101359.31
2023-04-25T02:29:54.589Z,101357.69
2023-04-25T02:31:59.470Z,101359.53
2023-04-25T02:34:04.524Z,101361.34
2023-04-25T02:36:10.277Z,101358.72
2023-04-25T02:38:15.875Z,101364.06
2023-04-25T02:40:19.941Z,101358.91
2023-04-25T02:42:27.620Z,101367.84
2023-04-25T02:44:32.458Z,101369.69
2023-04-25T02:46:40.087Z,101373.31
2023-04-25T02:48:44.869Z,101362.91
2023-04-25T02:50:48.946Z,101364.75
2023-04-25T02:52:54.827Z,101364.81
2023-04-25T02:55:05.268Z,101364.06
2023-04-25T02:57:11.139Z,101359.75
2023-04-25T02:59:17.986Z,101357.19
2023-04-25T03:01:22.797Z,101365.03
2023-04-25T03:03:27.201Z,101351.06
2023-04-25T03:05:32.098Z,101353.56
2023-04-25T03:07:36.929Z,101347.53
2023-04-25T03:09:41.294Z,101351.16
2023-04-25T03:11:47.208Z,101349.53
2023-04-25T03:13:51.968Z,101346.94
2023-04-25T03:16:00.054Z,101354.03
2023-04-25T03:18:05.057Z,101350.63
2023-04-25T03:20:11.320Z,101350.69
2023-04-25T03:22:15.809Z,101347.25
2023-04-25T03:24:20.208Z,101349.03
2023-04-25T03:26:23.854Z,101350.88
2023-04-25T03:28:27.704Z,101359.72
2023-04-25T03:30:33.369Z,101353.66
2023-04-25T03:32:38.623Z,101355.56
2023-04-25T03:34:44.413Z,101354.75
2023-04-25T03:36:48.354Z,101365.22
2023-04-25T03:38:52.297Z,101365.22
2023-04-25T03:40:58.529Z,101365.19
2023-04-25T03:43:37.434Z,101364.34
2023-04-25T03:45:46.410Z,101364.34
2023-04-25T03:47:51.953Z,101364.41
2023-04-25T03:49:55.318Z,101365.38
2023-04-25T03:52:01.372Z,101361.91
2023-04-25T03:54:08.753Z,101369.81
2023-04-25T03:56:44.833Z,101371.59
2023-04-25T03:58:55.812Z,101365.56
2023-04-25T04:01:04.054Z,101362.09
2023-04-25T04:03:10.021Z,101363.84
2023-04-25T04:05:14.171Z,101360.38
2023-04-25T04:07:24.937Z,101367.34
2023-04-25T04:09:32.045Z,101361.41
2023-04-25T04:11:39.695Z,101357.13
2023-04-25T04:13:43.709Z,101358.19
2023-04-25T04:15:47.532Z,101360.84
2023-04-25T04:17:51.245Z,101353.97
2023-04-25T04:19:57.339Z,101351.31
2023-04-25T04:22:00.556Z,101351.31
2023-04-25T04:24:04.559Z,101353.91
2023-04-25T04:26:17.602Z,101355.66
2023-04-25T04:28:29.209Z,101353.94
2023-04-25T04:30:42.444Z,101356.56
2023-04-25T04:32:47.412Z,101362.72
2023-04-25T04:34:52.123Z,101361.84
2023-04-25T04:36:59.960Z,101364.50
2023-04-25T04:39:04.630Z,101371.50
2023-04-25T04:41:13.384Z,101368.94
2023-04-25T04:43:33.684Z,101372.44
2023-04-25T04:45:47.483Z,101372.53
2023-04-25T04:48:13.087Z,101371.75
2023-04-25T04:50:52.681Z,101371.75
2023-04-25T04:53:23.226Z,101369.16
2023-04-25T04:56:05.233Z,101371.00
2023-04-25T04:58:30.316Z,101367.53
2023-04-25T05:00:46.271Z,101376.22
2023-04-25T05:03:09.073Z,101377.13
2023-04-25T05:05:21.220Z,101371.13
2023-04-25T05:07:47.517Z,101373.78
2023-04-25T05:10:10.802Z,101371.25
2023-04-25T05:12:22.260Z,101375.69
2023-04-25T05:14:36.451Z,101382.66
2023-04-25T05:17:00.135Z,101382.72
2023-04-25T05:19:35.361Z,101386.16
2023-04-25T05:22:01.734Z,101385.19
2023-04-25T05:24:17.135Z,101393.81
2023-04-25T05:26:41.828Z,101396.38
2023-04-25T05:29:15.614Z,101391.09
2023-04-25T05:31:32.336Z,101389.34
2023-04-25T05:33:44.584Z,101394.56
2023-04-25T05:35:48.849Z,101397.22
2023-04-25T05:37:53.175Z,101393.81
2023-04-25T05:40:02.841Z,101398.09
2023-04-25T05:42:30.710Z,101400.69
2023-04-25T05:44:57.625Z,101397.94
2023-04-25T05:47:27.565Z,101395.16
2023-04-25T05:49:44.443Z,101396.78
2023-04-25T05:52:04.596Z,101393.19
2023-04-25T05:54:40.552Z,101401.75
2023-04-25T05:56:44.450Z,101399.88
2023-04-25T05:58:49.828Z,101404.19
2023-04-25T06:00:53.779Z,101402.31
2023-04-25T06:02:57.476Z,101411.78
2023-04-25T06:05:01.422Z,101410.94
2023-04-25T06:07:05.402Z,101417.09
2023-04-25T06:09:09.704Z,101426.88
2023-04-25T06:11:13.226Z,101423.38
2023-04-25T06:13:17.127Z,101423.16
2023-04-25T06:15:27.997Z,101411.44
2023-04-25T06:17:33.054Z,101421.59
2023-04-25T06:19:38.486Z,101410.00
2023-04-25T06:21:42.359Z,101403.53
2023-04-25T06:23:45.966Z,101419.44
2023-04-25T06:25:56.550Z,101419.59
2023-04-25T06:28:00.996Z,101410.81
2023-04-25T06:30:05.568Z,101408.25
2023-04-25T06:32:12.321Z,101414.88
2023-04-25T06:34:16.341Z,101415.84
2023-04-25T06:36:19.787Z,101413.59
2023-04-25T06:38:32.193Z,101415.06
2023-04-25T06:40:36.260Z,101422.56
2023-04-25T06:42:40.405Z,101414.19
2023-04-25T06:45:02.183Z,101417.72
2023-04-25T06:47:14.604Z,101413.31
2023-04-25T06:49:19.734Z,101418.69
2023-04-25T06:51:25.463Z,101409.31
2023-04-25T06:53:31.028Z,101412.06
2023-04-25T06:55:37.845Z,101409.38
2023-04-25T06:57:50.056Z,101407.59
2023-04-25T07:00:23.642Z,101403.16
2023-04-25T07:02:28.540Z,101407.53
2023-04-25T07:04:32.898Z,101407.41
2023-04-25T07:06:39.191Z,101408.94
2023-04-25T07:08:42.905Z,101403.44
2023-04-25T07:10:49.643Z,101403.34
2023-04-25T07:12:53.494Z,101400.59
2023-04-25T07:14:57.532Z,101404.84
2023-04-25T07:17:01.094Z,101395.03
2023-04-25T07:19:08.300Z,101402.78
2023-04-25T07:21:12.592Z,101399.91
2023-04-25T07:23:17.954Z,101403.97
2023-04-25T07:25:22.370Z,101401.91
2023-04-25T07:27:26.758Z,101403.38
2023-04-25T07:33:23.054Z,101406.53
2023-04-25T07:35:28.872Z,101405.63
2023-04-25T07:37:33.489Z,101407.22
2023-04-25T07:39:48.617Z,101403.53
2023-04-25T07:41:55.247Z,101401.72
2023-04-25T07:44:03.152Z,101405.97
2023-04-25T07:46:08.845Z,101414.47
2023-04-25T07:48:13.699Z,101405.28
2023-04-25T07:50:18.327Z,101409.34
2023-04-25T07:52:23.942Z,101410.13
2023-04-25T07:54:34.955Z,101409.22
2023-04-25T07:56:52.566Z,101409.22
2023-04-25T07:58:58.912Z,101419.63
2023-04-25T08:01:03.380Z,101412.41
2023-04-25T08:03:26.360Z,101409.44
2023-04-25T08:05:32.224Z,101409.50
2023-04-25T08:07:43.270Z,101410.28
2023-04-25T08:09:47.589Z,101407.75
2023-04-25T08:12:00.286Z,101406.28
2023-04-25T08:14:08.438Z,101413.19
2023-04-25T08:16:13.362Z,101405.38
2023-04-25T08:18:18.240Z,101403.28
2023-04-25T08:20:25.002Z,101413.00
2023-04-25T08:22:33.230Z,101409.22
2023-04-25T08:25:06.390Z,101403.31
2023-04-25T08:27:11.352Z,101409.66
2023-04-25T08:29:15.638Z,101413.88
2023-04-25T08:31:19.953Z,101417.00
2023-04-25T08:33:35.192Z,101419.09
2023-04-25T08:35:49.920Z,101416.75
2023-04-25T08:37:54.460Z,101421.56
2023-04-25T08:39:58.642Z,101417.69
2023-04-25T08:42:24.316Z,101417.94
2023-04-25T08:44:29.499Z,101416.94
2023-04-25T08:46:35.115Z,101412.56
2023-04-25T08:49:00.347Z,101414.72
2023-04-25T08:53:20.829Z,101416.47
2023-04-25T08:55:26.691Z,101410.44
2023-04-25T08:57:37.521Z,101413.41
2023-04-25T08:59:47.033Z,101410.47
2023-04-25T09:01:52.718Z,101412.25
2023-04-25T09:04:00.619Z,101414.91
2023-04-25T09:06:06.048Z,101417.81
2023-04-25T09:08:10.837Z,101407.38
2023-04-25T09:10:15.045Z,101412.31
2023-04-25T09:12:22.125Z,101415.50
2023-04-25T09:14:29.322Z,101411.31
2023-04-25T09:16:59.537Z,101415.81
2023-04-25T09:19:38.697Z,101415.72
2023-04-25T09:21:45.728Z,101408.78
2023-04-25T09:23:53.296Z,101408.31
2023-04-25T09:25:58.792Z,101412.03
2023-04-25T09:28:06.972Z,101409.56
2023-04-25T09:30:14.720Z,101409.06
2023-04-25T09:32:41.990Z,101414.09
2023-04-25T09:34:50.943Z,101412.84
2023-04-25T09:36:57.979Z,101408.34
2023-04-25T09:39:37.230Z,101411.38
2023-04-25T09:41:49.520Z,101414.53
2023-04-25T09:43:53.960Z,101411.13
2023-04-25T09:46:01.557Z,101406.47
2023-04-25T09:48:08.832Z,101420.09
2023-04-25T09:50:21.693Z,101412.06
2023-04-25T09:52:31.749Z,101415.19
2023-04-25T09:54:51.104Z,101416.91
2023-04-25T09:57:13.244Z,101422.81
2023-04-25T09:59:18.046Z,101419.25
2023-04-25T10:01:25.804Z,101418.38
2023-04-25T10:03:43.144Z,101421.56
2023-04-25T10:06:09.899Z,101425.44
2023-04-25T10:08:15.157Z,101425.78
2023-04-25T10:10:20.118Z,101426.44
2023-04-25T10:12:24.849Z,101424.28
2023-04-25T10:14:30.056Z,101431.00
2023-04-25T10:16:36.090Z,101427.53
2023-04-25T10:18:40.093Z,101435.97
2023-04-25T10:20:44.444Z,101428.66
2023-04-25T10:22:55.462Z,101435.88
2023-04-25T10:25:00.625Z,101424.94
2023-04-25T10:27:04.825Z,101419.28
2023-04-25T10:29:08.554Z,101428.56
2023-04-25T10:31:12.723Z,101425.31
2023-04-25T10:33:21.772Z,101417.22
2023-04-25T10:35:29.215Z,101418.59
2023-04-25T10:37:34.643Z,101422.72
2023-04-25T10:39:40.692Z,101417.44
2023-04-25T10:41:56.398Z,101414.41
2023-04-25T10:44:03.719Z,101423.47
2023-04-25T10:46:19.092Z,101426.22
2023-04-25T10:48:30.184Z,101412.16
2023-04-25T10:50:41.960Z,101425.28
2023-04-25T10:52:46.993Z,101427.25
2023-04-25T10:54:51.556Z,101413.88
2023-04-25T10:56:55.906Z,101416.81
2023-04-25T10:59:08.395Z,101420.31
2023-04-25T11:01:12.434Z,101428.63
2023-04-25T11:03:19.347Z,101423.88
2023-04-25T11:05:36.434Z,101411.97
2023-04-25T11:08:03.850Z,101413.16
2023-04-25T11:10:11.487Z,101404.41
2023-04-25T11:12:16.283Z,101405.03
2023-04-25T11:14:20.162Z,101397.00
2023-04-25T11:16:28.006Z,101397.81
2023-04-25T11:18:34.224Z,101396.22
2023-04-25T11:20:40.055Z,101390.72
2023-04-25T11:22:46.592Z,101398.66
2023-04-25T11:24:51.897Z,101384.63
2023-04-25T11:26:55.773Z,101395.06
2023-04-25T11:29:03.038Z,101394.88
2023-04-25T11:31:07.955Z,101393.84
2023-04-25T11:33:12.674Z,101394.44
2023-04-25T11:35:17.606Z,101394.31
2023-04-25T11:37:23.474Z,101398.25
2023-04-25T11:39:28.179Z,101396.78
2023-04-25T11:41:33.191Z,101388.56
2023-04-25T11:43:36.945Z,101382.66
2023-04-25T11:45:41.389Z,101383.28
2023-04-25T11:47:45.853Z,101380.94
2023-04-25T11:49:51.337Z,101383.75
2023-04-25T11:51:55.672Z,101382.25
2023-04-25T11:54:01.553Z,101378.94
2023-04-25T11:56:12.681Z,101370.47
2023-04-25T11:58:16.563Z,101378.34
2023-04-25T12:00:22.230Z,101380.09
2023-04-25T12:02:29.356Z,101382.84
2023-04-25T12:04:35.183Z,101384.84
2023-04-25T12:06:41.228Z,101385.06
2023-04-25T12:09:06.046Z,101379.69
2023-04-25T12:11:23.782Z,101380.75
2023-04-25T12:13:29.642Z,101380.31
2023-04-25T12:15:36.755Z,101376.72
2023-04-25T12:17:41.629Z,101374.84
2023-04-25T12:19:45.949Z,101378.59
2023-04-25T12:21:58.104Z,101375.19
2023-04-25T12:24:14.889Z,101381.16
2023-04-25T12:26:22.171Z,101380.75
2023-04-25T12:28:28.824Z,101384.97
2023-04-25T12:30:33.400Z,101386.16
2023-04-25T12:32:37.696Z,101381.19
2023-04-25T12:34:41.774Z,101377.91
2023-04-25T12:36:45.763Z,101383.28
2023-04-25T12:38:51.115Z,101379.47
2023-04-25T12:40:56.832Z,101382.13
2023-04-25T12:43:00.645Z,101374.25
2023-04-25T12:45:04.446Z,101371.06
2023-04-25T12:47:08.966Z,101383.97
2023-04-25T12:51:21.133Z,101375.31
2023-04-25T12:53:26.101Z,101379.19
2023-04-25T12:55:31.067Z,101382.69
2023-04-25T12:57:36.302Z,101383.84
2023-04-25T12:59:40.327Z,101373.81
2023-04-25T13:01:44.409Z,101379.88
2023-04-25T13:03:49.280Z,101374.50
2023-04-25T13:05:54.002Z,101374.66
2023-04-25T13:07:57.997Z,101374.75
2023-04-25T13:10:02.171Z,101369.44
2023-04-25T13:12:06.722Z,101377.72
2023-04-25T13:14:12.189Z,101367.13
2023-04-25T13:16:16.803Z,101382.34
2023-04-25T13:18:22.157Z,101371.41
2023-04-25T13:20:26.692Z,101367.56
2023-04-25T13:22:31.405Z,101378.06
2023-04-25T13:24:35.547Z,101374.44
2023-04-25T13:26:39.949Z,101380.59
2023-04-25T13:28:44.965Z,101375.91
2023-04-25T13:30:51.110Z,101391.22
2023-04-25T13:32:57.511Z,101376.66
2023-04-25T13:35:03.718Z,101372.81
2023-04-25T13:37:10.502Z,101371.81
2023-04-25T13:39:14.940Z,101372.16
2023-04-25T13:41:20.157Z,101369.66
2023-04-25T13:43:25.189Z,101359.06
2023-04-25T13:45:31.001Z,101363.41
2023-04-25T13:47:37.523Z,101371.09
2023-04-25T13:49:41.449Z,101366.06
2023-04-25T13:51:45.402Z,101362.25
2023-04-25T13:53:49.414Z,101358.66
2023-04-25T13:55:53.597Z,101363.59
2023-04-25T13:57:57.339Z,101362.41
2023-04-25T14:00:06.131Z,101351.06
2023-04-25T14:02:10.582Z,101357.69
2023-04-25T14:04:16.657Z,101353.41
2023-04-25T14:06:24.107Z,101359.31
2023-04-25T14:08:29.948Z,101354.81
2023-04-25T14:10:34.152Z,101351.38
2023-04-25T14:12:38.382Z,101351.91
2023-04-25T14:14:42.580Z,101346.34
2023-04-25T14:16:46.874Z,101348.19
2023-04-25T14:18:51.323Z,101348.56
2023-04-25T14:20:57.529Z,101341.03
2023-04-25T14:23:01.700Z,101335.69
2023-04-25T14:25:06.663Z,101333.66
2023-04-25T14:27:11.631Z,101322.66
2023-04-25T14:29:16.012Z,101349.34
2023-04-25T14:31:20.384Z,101339.50
2023-04-25T14:33:25.211Z,101326.66
2023-04-25T14:35:30.618Z,101329.50
2023-04-25T14:37:36.164Z,101329.41
2023-04-25T14:39:40.622Z,101323.44
2023-04-25T14:41:45.019Z,101316.25
2023-04-25T14:43:50.214Z,101317.69
2023-04-25T14:45:58.407Z,101310.22
2023-04-25T14:48:03.951Z,101311.41
2023-04-25T14:50:10.083Z,101312.78
2023-04-25T14:52:14.455Z,101314.81
2023-04-25T14:54:20.354Z,101320.97
2023-04-25T14:56:25.382Z,101317.84
2023-04-25T14:58:30.635Z,101316.22
2023-04-25T15:00:35.320Z,101321.66
2023-04-25T15:02:40.227Z,101319.34
2023-04-25T15:04:45.256Z,101317.47
2023-04-25T15:06:50.059Z,101311.94
2023-04-25T15:08:54.432Z,101319.47
2023-04-25T15:11:00.387Z,101312.31
2023-04-25T15:13:05.236Z,101312.16
2023-04-25T15:15:17.588Z,101315.69
2023-04-25T15:17:32.291Z,101311.97
2023-04-25T15:19:40.121Z,101309.97
2023-04-25T15:21:44.613Z,101303.66
2023-04-25T15:23:49.625Z,101311.34
2023-04-25T15:25:54.662Z,101306.56
2023-04-25T15:28:01.176Z,101298.72
2023-04-25T15:30:05.454Z,101307.44
2023-04-25T15:32:10.380Z,101304.00
2023-04-25T15:34:15.134Z,101312.75
2023-04-25T15:36:19.724Z,101311.59
2023-04-25T15:38:24.239Z,101307.22
2023-04-25T15:40:28.621Z,101306.56
2023-04-25T15:42:33.070Z,101303.28
2023-04-25T15:44:38.686Z,101303.28
2023-04-25T15:46:42.602Z,101304.47
2023-04-25T15:48:46.434Z,101302.13
2023-04-25T15:50:50.423Z,101300.34
2023-04-25T15:52:54.869Z,101293.34
2023-04-25T15:54:58.688Z,101299.25
2023-04-25T15:57:02.560Z,101297.38
2023-04-25T15:59:06.597Z,101290.56
2023-04-25T16:01:12.601Z,101303.56
2023-04-25T16:03:17.256Z,101296.47
2023-04-25T16:05:21.511Z,101295.19
2023-04-25T16:07:25.482Z,101301.03
2023-04-25T16:09:29.587Z,101291.00
2023-04-25T16:11:33.337Z,101291.53
2023-04-25T16:13:37.253Z,101297.94
2023-04-25T16:15:41.421Z,101288.59
2023-04-25T16:17:46.983Z,101288.16
2023-04-25T16:19:51.433Z,101295.97
2023-04-25T16:21:55.966Z,101291.00
2023-04-25T16:24:00.375Z,101289.44
2023-04-25T16:26:04.404Z,101291.25
2023-04-25T16:28:08.106Z,101283.38
2023-04-25T16:30:12.833Z,101290.44
2023-04-25T16:32:16.640Z,101288.81
2023-04-25T16:34:23.839Z,101284.47
2023-04-25T16:36:28.426Z,101280.88
2023-04-25T16:38:32.243Z,101282.16
2023-04-25T16:40:36.455Z,101283.00
2023-04-25T16:42:40.962Z,101282.41
2023-04-25T16:44:44.944Z,101279.75
2023-04-25T16:46:49.303Z,101278.19
2023-04-25T16:48:53.440Z,101273.91
2023-04-25T16:50:59.583Z,101277.66
2023-04-25T16:53:03.357Z,101274.38
2023-04-25T16:55:08.300Z,101266.53
2023-04-25T16:57:12.160Z,101268.00
2023-04-25T16:59:16.471Z,101280.22
2023-04-25T17:01:21.484Z,101273.91
2023-04-25T17:03:26.513Z,101275.38
2023-04-25T17:05:30.890Z,101275.56
2023-04-25T17:07:36.410Z,101280.97
2023-04-25T17:09:40.383Z,101274.22
2023-04-25T17:11:44.532Z,101269.25
2023-04-25T17:13:48.859Z,101273.84
2023-04-25T17:15:53.286Z,101273.00
2023-04-25T17:17:57.150Z,101278.97
2023-04-25T17:20:01.098Z,101278.88
2023-04-25T17:22:04.970Z,101284.03
2023-04-25T17:24:12.366Z,101286.53
2023-04-25T17:26:17.126Z,101290.63
2023-04-25T17:28:20.988Z,101288.69
2023-04-25T17:30:24.854Z,101285.25
2023-04-25T17:32:29.059Z,101292.44
2023-04-25T17:34:33.046Z,101289.31
2023-04-25T17:36:37.302Z,101290.34
2023-04-25T17:38:41.115Z,101287.16
2023-04-25T17:40:46.616Z,101297.09
2023-04-25T17:42:50.932Z,101290.97
2023-04-25T17:44:55.831Z,101295.38
2023-04-25T17:47:01.797Z,101290.78
2023-04-25T17:49:06.393Z,101292.50
2023-04-25T17:51:10.962Z,101293.53
2023-04-25T17:53:15.164Z,101287.44
2023-04-25T17:55:19.190Z,101295.78
2023-04-25T17:57:25.688Z,101300.06
2023-04-25T17:59:30.284Z,101300.19
2023-04-25T18:01:34.446Z,101295.38
2023-04-25T18:03:40.713Z,101300.81
2023-04-25T18:05:45.546Z,101297.56
2023-04-25T18:07:49.990Z,101300.47
2023-04-25T18:09:53.862Z,101305.16
2023-04-25T18:11:58.703Z,101302.53
2023-04-25T18:14:04.578Z,101299.81
2023-04-25T18:16:09.484Z,101305.88
2023-04-25T18:18:20.637Z,101302.31
2023-04-25T18:20:25.521Z,101307.72
2023-04-25T18:22:30.274Z,101307.72
2023-04-25T18:24:34.218Z,101308.72
2023-04-25T18:26:38.234Z,101313.03
2023-04-25T18:28:42.401Z,101305.00
2023-04-25T18:30:48.119Z,101311.19
2023-04-25T18:32:52.686Z,101311.69
2023-04-25T18:34:56.673Z,101306.66
2023-04-25T18:37:01.328Z,101312.97
2023-04-25T18:39:21.534Z,101310.56
2023-04-25T18:41:44.297Z,101316.00
2023-04-25T18:43:52.180Z,101309.06
2023-04-25T18:45:57.841Z,101307.50
2023-04-25T18:48:02.727Z,101306.59
2023-04-25T18:50:09.340Z,101319.06
2023-04-25T18:52:16.271Z,101315.09
2023-04-25T18:54:21.091Z,101318.00
2023-04-25T18:56:27.172Z,101313.59
2023-04-25T18:58:31.782Z,101318.78
2023-04-25T19:00:36.212Z,101313.50
2023-04-25T19:02:43.256Z,101310.06
2023-04-25T19:04:48.696Z,101314.50
2023-04-25T19:06:53.015Z,101313.50
2023-04-25T19:08:57.860Z,101308.22
2023-04-25T19:11:10.842Z,101316.41
2023-04-25T19:13:26.236Z,101312.06
2023-04-25T19:15:34.914Z,101309.34
2023-04-25T19:17:42.522Z,101304.94
2023-04-25T19:19:47.411Z,101305.72
2023-04-25T19:21:53.015Z,101309.22
2023-04-25T19:23:57.908Z,101295.38
2023-04-25T19:26:02.566Z,101298.09
2023-04-25T19:28:12.162Z,101307.84
2023-04-25T19:30:17.026Z,101307.22
2023-04-25T19:32:21.275Z,101312.78
2023-04-25T19:34:27.858Z,101314.66
2023-04-25T19:36:32.893Z,101313.78
2023-04-25T19:38:38.183Z,101309.56
2023-04-25T19:40:43.151Z,101303.63
2023-04-25T19:42:48.189Z,101313.47
2023-04-25T19:44:53.752Z,101309.91
2023-04-25T19:47:01.018Z,101308.91
2023-04-25T19:49:12.266Z,101307.91
2023-04-25T19:51:21.858Z,101314.06
2023-04-25T19:53:26.681Z,101312.19
2023-04-25T19:55:33.338Z,101311.28
2023-04-25T19:57:38.304Z,101317.41
2023-04-25T19:59:46.255Z,101321.75
2023-04-25T20:01:51.514Z,101321.09
2023-04-25T20:03:56.257Z,101316.78
2023-04-25T20:06:00.988Z,101312.50
2023-04-25T20:08:07.931Z,101312.50
2023-04-25T20:10:14.399Z,101311.91
2023-04-25T20:12:20.011Z,101317.44
2023-04-25T20:14:26.925Z,101309.69
2023-04-25T20:16:33.179Z,101311.66
2023-04-25T20:18:38.113Z,101323.13
2023-04-25T20:20:42.761Z,101310.72
2023-04-25T20:22:57.366Z,101317.81
2023-04-25T20:25:05.955Z,101319.72
2023-04-25T20:27:16.190Z,101320.63
2023-04-25T20:29:23.773Z,101317.06
2023-04-25T20:31:31.610Z,101319.97
2023-04-25T20:33:39.768Z,101314.69
2023-04-25T20:35:45.803Z,101318.97
2023-04-25T20:37:51.309Z,101324.97
2023-04-25T20:39:56.518Z,101319.56
2023-04-25T20:42:10.648Z,101326.56
2023-04-25T20:44:23.033Z,101326.56
2023-04-25T20:46:31.954Z,101326.50
2023-04-25T20:48:37.340Z,101329.97
2023-04-25T20:50:47.010Z,101324.78
2023-04-25T20:52:52.613Z,101324.78
2023-04-25T20:55:03.255Z,101323.00
2023-04-25T20:57:09.497Z,101326.56
2023-04-25T20:59:14.218Z,101319.56
2023-04-25T21:01:19.039Z,101317.81
2023-04-25T21:03:24.148Z,101317.00
2023-04-25T21:05:28.567Z,101319.56
2023-04-25T21:07:33.189Z,101318.50
2023-04-25T21:09:37.603Z,101316.94
2023-04-25T21:11:42.919Z,101312.84
2023-04-25T21:13:49.715Z,101314.06
2023-04-25T21:15:54.572Z,101311.53
2023-04-25T21:17:59.549Z,101307.97
2023-04-25T21:20:10.677Z,101308.28
2023-04-25T21:22:15.924Z,101304.81
2023-04-25T21:24:23.066Z,101317.22
2023-04-25T21:26:27.735Z,101321.69
2023-04-25T21:28:32.743Z,101318.22
2023-04-25T21:30:38.893Z,101315.56
2023-04-25T21:32:44.115Z,101323.41
2023-04-25T21:34:49.109Z,101327.78
2023-04-25T21:36:53.495Z,101327.78
2023-04-25T21:38:58.060Z,101318.13
2023-04-25T21:41:02.955Z,101312.06
2023-04-25T21:43:08.775Z,101308.66
2023-04-25T21:45:13.821Z,101314.84
2023-04-25T21:47:19.781Z,101309.63
2023-04-25T21:49:29.728Z,101319.19
2023-04-25T21:51:34.168Z,101311.22
2023-04-25T21:53:39.068Z,101315.50
2023-04-25T21:55:43.430Z,101318.22
2023-04-25T21:57:48.043Z,101316.63
2023-04-25T21:59:52.319Z,101312.25
2023-04-25T22:01:57.593Z,101318.53
2023-04-25T22:04:06.163Z,101316.03
2023-04-25T22:06:11.089Z,101322.22
2023-04-25T22:08:18.102Z,101321.22
2023-04-25T22:10:28.899Z,101323.66
2023-04-25T22:12:33.860Z,101330.66
2023-04-25T22:14:39.648Z,101326.19
2023-04-25T22:16:44.604Z,101325.38
2023-04-25T22:18:49.813Z,101321.69
2023-04-25T22:20:55.971Z,101314.69
2023-04-25T22:23:00.374Z,101321.03
2023-04-25T22:25:05.302Z,101326.44
2023-04-25T22:27:10.658Z,101321.28
2023-04-25T22:29:15.512Z,101321.28
2023-04-25T22:31:21.006Z,101322.22
2023-04-25T22:33:25.858Z,101329.34
2023-04-25T22:35:30.034Z,101325.91
2023-04-25T22:37:36.969Z,101319.72
2023-04-25T22:39:41.067Z,101327.56
2023-04-25T22:41:45.473Z,101333.66
2023-04-25T22:43:49.658Z,101320.50
2023-04-25T22:45:53.928Z,101328.41
2023-04-25T22:47:58.959Z,101323.25
2023-04-25T22:50:05.838Z,101321.53
2023-04-25T22:52:10.708Z,101322.44
2023-04-25T22:54:16.219Z,101325.22
2023-04-25T22:56:20.271Z,101320.09
2023-04-25T22:58:24.752Z,101314.88
2023-04-25T23:00:30.686Z,101316.66
2023-04-25T23:02:36.028Z,101319.28
2023-04-25T23:04:40.328Z,101315.81
2023-04-25T23:06:44.558Z,101316.66
2023-04-25T23:08:48.637Z,101312.31
2023-04-25T23:10:54.830Z,101308.03
2023-04-25T23:13:01.133Z,101309.03
2023-04-25T23:15:06.119Z,101314.44
2023-04-25T23:17:10.326Z,101310.91
2023-04-25T23:19:14.689Z,101317.16
2023-04-25T23:21:19.275Z,101317.16
2023-04-25T23:23:23.781Z,101319.78
2023-04-25T23:25:28.897Z,101323.31
2023-04-25T23:27:34.362Z,101317.97
2023-04-25T23:29:38.469Z,101322.44
2023-04-25T23:31:42.432Z,101325.88
2023-04-25T23:33:46.506Z,101318.75
2023-04-25T23:35:51.509Z,101322.19
2023-04-25T23:37:56.221Z,101321.22
2023-04-25T23:40:00.764Z,101319.25
2023-04-25T23:42:05.299Z,101319.81
2023-04-25T23:44:11.041Z,101324.00
2023-04-25T23:46:15.368Z,101313.19
2023-04-25T23:48:19.866Z,101307.72
2023-04-25T23:50:24.517Z,101313.72
2023-04-25T23:52:29.348Z,101306.53
2023-04-25T23:54:33.836Z,101308.25
2023-04-25T23:56:37.952Z,101309.94
2023-04-25T23:58:42.255Z,101308.25
